Honolulu, HI

11:21 AM HST on May 04, 2015 (GMT -1000)
Pacific Heights | | Change Station
CLOSE
Current Station
Personal Weather Station
Location: Honolulu, HI
Elevation: 528 ft
Nearby Weather Stations

Elev 528 ft 21.33 °N, 157.84 °W | Updated 4 seconds ago

Mostly Cloudy
Mostly Cloudy
76.3 °F
Feels Like 78 °F
N
10.1
Wind Variable Wind from NE
Gusts 10.1 mph

Today
High -- | Low -- °F
--% Chance of Precip.
Yesterday
High -- | Low -- °F
Precip. -- in
5:58 AM 6:57 PM
Waxing Gibbous, 99% visible
Pressure 30.07 in
Visibility 10.0 miles
Clouds Few 2600 ft
Scattered Clouds 4000 ft
Mostly Cloudy 8500 ft
Heat Index 78 °F
Dew Point 65 °F
Humidity 68%
Rainfall 0.20 in
Snow Depth Not available.
UV 6 out of 12
Pollen Not available.
Air Quality Not available.
Flu Activity Regional
METAR PHNL 042053Z 08008G15KT 10SM FEW026 SCT040 BKN085 26/16 A3007 RMK AO2 SLP182 VCSH NE-E SHRA DSNT N 60001 T02610161 50009

More Conditions Fewer Conditions

Pressure 30.07 in
Visibility 10.0 miles
Clouds Few 2600 ft
Scattered Clouds 4000 ft
Mostly Cloudy 8500 ft
Heat Index 78 °F
Dew Point 65 °F
Humidity 68%
Rainfall 0.20 in
Snow Depth Not available.
UV 6 out of 12
Pollen Not available.
Air Quality Not available.
Flu Activity Regional
METAR PHNL 042053Z 08008G15KT 10SM FEW026 SCT040 BKN085 26/16 A3007 RMK AO2 SLP182 VCSH NE-E SHRA DSNT N 60001 T02610161 50009

More Conditions Fewer Conditions

10-Day Weather Forecast

Almanac

Astronomy

May. 04, 2015 Rise Set
Actual Time
Civil Twilight
Nautical Twilight
Astronomical Twilight
Moon
Length of Visible Light
Length of Day
Tomorrow will be .
, % of the Moon is Illuminated

Today's Extremes

State Highs State Lows

Community

WunderPhotos

Upload Photos

1,818,703 photos uploaded!

WunderBlogs® & News

Nearby

Air Quality

  Air Quality AQ Index Pollutant
Not available.

Snow Depth

Station Depth Elevation

Earthquake Activity

City Distance Mag. Time & Date
Minimum magnitude displayed is 2.5.

Coastal Water Temperatures

Place Temperature

Stations

Nearby Weather Stations

Station Location Temp. Windchill Dew Point Humidity Wind Precip. Elev Updated Type